1885 NOT_NAMED (1885032S16077)


IBTrACS version v04r00. Visit IBTrACS website for data access.
Please direct all questions to the IBTrACS Q and A forum

Storm track - Intensity - Wind Radii - Intensity Data - Source Data - All data

Summary Information

Storm ID 1885032S16077
Start Jan 31 18Z
End Feb 8 06Z
ATCF IDs
Track status Best track data.

Storm track plot

Map of storm track

Intensity plots

No Intensity information for this storm


Radial wind information

No radial wind information for this storm


Position and Intensity Table

BASIN ISO_TIME_________ NATURE LAT LON
degrees north degrees east
SI 1885-01-31 18:00:00 NR -15.60 77.30
SI 21:00:00 NR -15.70 76.81
SI 1885-02-01 00:00:00 NR -15.81 76.32
SI 03:00:00 NR -15.90 75.85
SI 06:00:00 NR -16.00 75.40
SI 09:00:00 NR -16.09 74.97
SI 12:00:00 NR -16.18 74.57
SI 15:00:00 NR -16.29 74.18
SI 18:00:00 NR -16.40 73.80
SI 21:00:00 NR -16.54 73.42
SI 1885-02-02 00:00:00 NR -16.69 73.04
SI 03:00:00 NR -16.85 72.67
SI 06:00:00 NR -17.00 72.30
SI 09:00:00 NR -17.12 71.94
SI 12:00:00 NR -17.24 71.58
SI 15:00:00 NR -17.36 71.20
SI 18:00:00 NR -17.50 70.80
SI 21:00:00 NR -17.66 70.34
SI 1885-02-03 00:00:00 NR -17.84 69.85
SI 03:00:00 NR -18.02 69.36
SI 06:00:00 NR -18.20 68.90
SI 09:00:00 NR -18.36 68.49
SI 12:00:00 NR -18.51 68.10
SI 15:00:00 NR -18.65 67.74
SI 18:00:00 NR -18.80 67.40
SI 21:00:00 NR -18.96 67.05
SI 1885-02-04 00:00:00 NR -19.11 66.72
SI 03:00:00 NR -19.26 66.40
SI 06:00:00 NR -19.40 66.10
SI 09:00:00 NR -19.51 65.81
SI 12:00:00 NR -19.61 65.53
SI 15:00:00 NR -19.70 65.27
SI 18:00:00 NR -19.80 65.00
SI 21:00:00 NR -19.91 64.74
SI 1885-02-05 00:00:00 NR -20.03 64.48
SI 03:00:00 NR -20.16 64.20
SI 06:00:00 NR -20.30 63.90
SI 09:00:00 NR -20.46 63.56
SI 12:00:00 NR -20.63 63.19
SI 15:00:00 NR -20.81 62.80
SI 18:00:00 NR -21.00 62.40
SI 21:00:00 NR -21.19 62.01
SI 1885-02-06 00:00:00 NR -21.39 61.61
SI 03:00:00 NR -21.60 61.21
SI 06:00:00 NR -21.80 60.80
SI 09:00:00 NR -22.00 60.37
SI 12:00:00 NR -22.20 59.94
SI 15:00:00 NR -22.40 59.51
SI 18:00:00 NR -22.60 59.10
SI 21:00:00 NR -22.80 58.71
SI 1885-02-07 00:00:00 NR -23.00 58.34
SI 03:00:00 NR -23.20 57.97
SI 06:00:00 NR -23.40 57.60
SI 09:00:00 NR -23.60 57.20
SI 12:00:00 NR -23.79 56.80
SI 15:00:00 NR -23.99 56.40
SI 18:00:00 NR -24.20 56.00
SI 21:00:00 NR -24.42 55.61
SI 1885-02-08 00:00:00 NR -24.64 55.24
SI 03:00:00 NR -24.87 54.87
SI 06:00:00 NR -25.10 54.50

Source Information

Agency Information
USA
TOKYO
CMA
HKO
NEWDELHI
REUNION
BOM
NADI
WELLINGTON
DS824
TD9636 cons_worldwide_trop_cyclone_18710101-19891231-005:Line=1873
TD9635
NEUMANN
MLC

All available IBTrACS Data

SEASON BASIN SUBBASIN ISO_TIME_________ NATURE LAT LON DIST2LAND LANDFALL IFLAG USA SSHS TD9636 LAT TD9636 LON TD9636 STAGE STORM SPEED STORM DIR
Year degrees north degrees east km km 1 degrees north degrees east kts degrees
1885 SI MM 1885-01-31 18:00:00 NR -15.60 77.30 2127 2072 __________O___ -1 -15.60 77.30 7 10 258
1885 SI MM 21:00:00 NR -15.70 76.81 2072 2018 __________P___ -1 -15.70 76.81 7 10 258
1885 SI MM 1885-02-01 00:00:00 NR -15.81 76.32 2018 1974 __________P___ -1 -15.81 76.32 7 9 258
1885 SI MM 03:00:00 NR -15.90 75.85 1974 1919 __________P___ -1 -15.90 75.85 7 9 258
1885 SI MM 06:00:00 NR -16.00 75.40 1919 1875 __________O___ -1 -16.00 75.40 7 9 258
1885 SI MM 09:00:00 NR -16.09 74.97 1875 1831 __________P___ -1 -16.09 74.97 7 8 257
1885 SI MM 12:00:00 NR -16.18 74.57 1831 1787 __________P___ -1 -16.18 74.57 7 8 256
1885 SI MM 15:00:00 NR -16.29 74.18 1787 1743 __________P___ -1 -16.29 74.18 7 8 254
1885 SI MM 18:00:00 NR -16.40 73.80 1743 1699 __________O___ -1 -16.40 73.80 7 8 251
1885 SI MM 21:00:00 NR -16.54 73.42 1699 1662 __________P___ -1 -16.54 73.42 7 8 248
1885 SI MM 1885-02-02 00:00:00 NR -16.69 73.04 1651 1618 __________P___ -1 -16.69 73.04 7 8 247
1885 SI MM 03:00:00 NR -16.85 72.67 1618 1571 __________P___ -1 -16.85 72.67 7 8 247
1885 SI MM 06:00:00 NR -17.00 72.30 1571 1537 __________O___ -1 -17.00 72.30 7 8 248
1885 SI MM 09:00:00 NR -17.12 71.94 1527 1493 __________P___ -1 -17.12 71.94 7 7 251
1885 SI MM 12:00:00 NR -17.24 71.58 1493 1446 __________P___ -1 -17.24 71.58 7 7 251
1885 SI MM 15:00:00 NR -17.36 71.20 1446 1402 __________P___ -1 -17.36 71.20 7 8 251
1885 SI MM 18:00:00 NR -17.50 70.80 1402 1355 __________O___ -1 -17.50 70.80 7 9 250
1885 SI MM 21:00:00 NR -17.66 70.34 1345 1301 __________P___ -1 -17.66 70.34 7 10 249
1885 SI MM 1885-02-03 00:00:00 NR -17.84 69.85 1301 1245 __________P___ -1 -17.84 69.85 7 10 249
1885 SI MM 03:00:00 NR -18.02 69.36 1245 1188 __________P___ -1 -18.02 69.36 7 10 248
1885 SI MM 06:00:00 NR -18.20 68.90 1188 1144 __________O___ -1 -18.20 68.90 7 9 248
1885 SI MM 09:00:00 NR -18.36 68.49 1142 1098 __________P___ -1 -18.36 68.49 7 8 248
1885 SI MM 12:00:00 NR -18.51 68.10 1098 1065 __________P___ -1 -18.51 68.10 7 8 247
1885 SI MM 15:00:00 NR -18.65 67.74 1052 1019 __________P___ -1 -18.65 67.74 7 7 246
1885 SI MM 18:00:00 NR -18.80 67.40 1019 986 __________O___ -1 -18.80 67.40 7 7 245
1885 SI MM 21:00:00 NR -18.96 67.05 984 941 __________P___ -1 -18.96 67.05 7 7 244
1885 SI MM 1885-02-04 00:00:00 NR -19.11 66.72 941 906 __________P___ -1 -19.11 66.72 7 7 243
1885 SI MM 03:00:00 NR -19.26 66.40 906 873 __________P___ -1 -19.26 66.40 7 7 244
1885 SI MM 06:00:00 NR -19.40 66.10 873 841 __________O___ -1 -19.40 66.10 7 6 246
1885 SI MM 09:00:00 NR -19.51 65.81 841 808 __________P___ -1 -19.51 65.81 7 6 249
1885 SI MM 12:00:00 NR -19.61 65.53 808 786 __________P___ -1 -19.61 65.53 7 5 250
1885 SI MM 15:00:00 NR -19.70 65.27 786 754 __________P___ -1 -19.70 65.27 7 5 249
1885 SI MM 18:00:00 NR -19.80 65.00 754 732 __________O___ -1 -19.80 65.00 7 5 247
1885 SI MM 21:00:00 NR -19.91 64.74 721 700 __________P___ -1 -19.91 64.74 7 5 245
1885 SI MM 1885-02-05 00:00:00 NR -20.03 64.48 700 668 __________P___ -1 -20.03 64.48 7 6 244
1885 SI MM 03:00:00 NR -20.16 64.20 667 636 __________P___ -1 -20.16 64.20 7 6 243
1885 SI MM 06:00:00 NR -20.30 63.90 636 604 __________O___ -1 -20.30 63.90 7 7 244
1885 SI MM 09:00:00 NR -20.46 63.56 604 563 __________P___ -1 -20.46 63.56 7 7 244
1885 SI MM 12:00:00 NR -20.63 63.19 563 523 __________P___ -1 -20.63 63.19 7 8 244
1885 SI MM 15:00:00 NR -20.81 62.80 523 484 __________P___ -1 -20.81 62.80 7 8 243
1885 SI MM 18:00:00 NR -21.00 62.40 484 448 __________O___ -1 -21.00 62.40 7 8 242
1885 SI MM 21:00:00 NR -21.19 62.01 448 413 __________P___ -1 -21.19 62.01 7 8 242
1885 SI MM 1885-02-06 00:00:00 NR -21.39 61.61 413 381 __________P___ -1 -21.39 61.61 7 8 242
1885 SI MM 03:00:00 NR -21.60 61.21 381 352 __________P___ -1 -21.60 61.21 7 9 242
1885 SI MM 06:00:00 NR -21.80 60.80 352 326 __________O___ -1 -21.80 60.80 7 9 243
1885 SI MM 09:00:00 NR -22.00 60.37 326 304 __________P___ -1 -22.00 60.37 7 9 243
1885 SI MM 12:00:00 NR -22.20 59.94 296 281 __________P___ -1 -22.20 59.94 7 9 243
1885 SI MM 15:00:00 NR -22.40 59.51 282 272 __________P___ -1 -22.40 59.51 7 9 243
1885 SI MM 18:00:00 NR -22.60 59.10 275 270 __________O___ -1 -22.60 59.10 7 8 242
1885 SI MM 21:00:00 NR -22.80 58.71 277 273 __________P___ -1 -22.80 58.71 7 8 240
1885 SI MM 1885-02-07 00:00:00 NR -23.00 58.34 286 286 __________P___ -1 -23.00 58.34 7 8 240
1885 SI MM 03:00:00 NR -23.20 57.97 303 296 __________P___ -1 -23.20 57.97 7 8 240
1885 SI MM 06:00:00 NR -23.40 57.60 298 290 __________O___ -1 -23.40 57.60 7 8 241
1885 SI MM 09:00:00 NR -23.60 57.20 294 289 __________P___ -1 -23.60 57.20 7 8 242
1885 SI MM 12:00:00 NR -23.79 56.80 295 291 __________P___ -1 -23.79 56.80 7 8 242
1885 SI MM 15:00:00 NR -23.99 56.40 302 299 __________P___ -1 -23.99 56.40 7 8 241
1885 SI MM 18:00:00 NR -24.20 56.00 315 314 __________O___ -1 -24.20 56.00 7 8 239
1885 SI MM 21:00:00 NR -24.42 55.61 335 335 __________P___ -1 -24.42 55.61 7 8 238
1885 SI MM 1885-02-08 00:00:00 NR -24.64 55.24 360 360 __________P___ -1 -24.64 55.24 7 8 236
1885 SI MM 03:00:00 NR -24.87 54.87 397 397 __________P___ -1 -24.87 54.87 7 8 236
1885 SI MM 06:00:00 NR -25.10 54.50 428 __________O___ -1 -25.10 54.50 7 8 235